createdAt,value
2019-02-17T00:01:50.182Z,35.37
2019-02-17T00:04:16.335Z,32.17
2019-02-17T00:06:42.629Z,30.50
2019-02-17T00:09:10.630Z,31.47
2019-02-17T00:11:36.786Z,31.47
2019-02-17T00:14:02.972Z,232.67
2019-02-17T00:16:29.122Z,161.33
2019-02-17T00:18:55.279Z,39.43
2019-02-17T00:21:21.508Z,35.27
2019-02-17T00:23:47.659Z,32.37
2019-02-17T00:26:13.820Z,36.47
2019-02-17T00:28:40.020Z,35.60
2019-02-17T00:31:06.175Z,46.63
2019-02-17T00:33:32.327Z,32.53
2019-02-17T00:35:58.515Z,27.40
2019-02-17T00:38:24.666Z,30.80
2019-02-17T00:40:50.819Z,23.60
2019-02-17T00:43:17.011Z,23.13
2019-02-17T00:45:43.172Z,21.27
2019-02-17T00:48:09.320Z,19.87
2019-02-17T00:50:35.518Z,17.67
2019-02-17T00:53:01.780Z,32.47
2019-02-17T00:55:27.933Z,23.27
2019-02-17T00:57:54.227Z,20.23
2019-02-17T01:00:20.403Z,21.23
2019-02-17T01:02:46.554Z,25.90
2019-02-17T01:05:12.843Z,17.83
2019-02-17T01:07:39.106Z,30.43
2019-02-17T01:10:06.565Z,28.20
2019-02-17T01:12:32.764Z,27.07
2019-02-17T01:14:58.929Z,22.03
2019-02-17T01:17:25.181Z,23.27
2019-02-17T01:19:51.368Z,24.57
2019-02-17T01:22:17.990Z,29.30
2019-02-17T01:24:44.133Z,25.97
2019-02-17T01:27:10.515Z,27.37
2019-02-17T01:29:36.676Z,39.53
2019-02-17T01:32:02.932Z,27.43
2019-02-17T01:34:29.239Z,22.00
2019-02-17T01:36:55.401Z,19.83
2019-02-17T01:39:21.546Z,39.20
2019-02-17T01:41:47.736Z,22.43
2019-02-17T01:44:13.892Z,23.90
2019-02-17T01:46:40.050Z,32.50
2019-02-17T01:49:06.243Z,46.43
2019-02-17T01:51:32.405Z,48.13
2019-02-17T01:53:58.562Z,24.13
2019-02-17T01:56:24.755Z,24.67
2019-02-17T01:58:50.921Z,19.45
2019-02-17T02:01:17.329Z,19.87
2019-02-17T02:03:43.576Z,35.90
2019-02-17T02:06:09.727Z,20.23
2019-02-17T02:08:35.883Z,26.13
2019-02-17T02:11:02.174Z,33.17
2019-02-17T02:13:28.427Z,34.27
2019-02-17T02:15:54.586Z,21.47
2019-02-17T02:18:20.887Z,19.43
2019-02-17T02:20:47.037Z,20.03
2019-02-17T02:23:13.344Z,22.23
2019-02-17T02:25:39.634Z,20.03
2019-02-17T02:28:05.784Z,16.43
2019-02-17T02:30:31.934Z,18.20
2019-02-17T02:32:58.124Z,20.27
2019-02-17T02:35:24.672Z,19.27
2019-02-17T02:37:50.826Z,21.23
2019-02-17T02:40:17.017Z,20.47
2019-02-17T02:42:43.171Z,21.70
2019-02-17T02:45:09.621Z,16.80
2019-02-17T02:47:35.808Z,23.87
2019-02-17T02:50:02.380Z,20.87
2019-02-17T02:52:28.531Z,20.57
2019-02-17T02:54:54.719Z,18.50
2019-02-17T02:57:20.980Z,20.53
2019-02-17T02:59:52.367Z,18.60
2019-02-17T03:02:15.240Z,20.70
2019-02-17T03:04:41.495Z,30.80
2019-02-17T03:07:08.155Z,19.73
2019-02-17T03:09:34.331Z,18.27
2019-02-17T03:12:00.491Z,23.47
2019-02-17T03:14:26.642Z,24.27
2019-02-17T03:16:52.822Z,29.13
2019-02-17T03:19:18.984Z,26.83
2019-02-17T03:21:45.134Z,34.67
2019-02-17T03:24:11.393Z,22.63
2019-02-17T03:26:37.647Z,25.50
2019-02-17T03:29:03.802Z,21.43
2019-02-17T03:31:30.002Z,27.33
2019-02-17T03:33:56.150Z,25.17
2019-02-17T03:36:22.303Z,26.37
2019-02-17T03:38:48.493Z,26.97
2019-02-17T03:41:14.743Z,20.90
2019-02-17T03:43:40.899Z,29.97
2019-02-17T03:46:07.102Z,32.10
2019-02-17T03:48:33.275Z,24.17
2019-02-17T03:50:59.414Z,30.10
2019-02-17T03:53:25.595Z,28.27
2019-02-17T03:55:51.756Z,28.60
2019-02-17T03:58:18.015Z,34.37
2019-02-17T04:00:44.206Z,32.97
2019-02-17T04:03:10.362Z,30.50
2019-02-17T04:05:36.520Z,30.10
2019-02-17T04:08:02.711Z,28.47
2019-02-17T04:10:28.968Z,25.63
2019-02-17T04:12:55.133Z,22.60
2019-02-17T04:15:21.424Z,19.57
2019-02-17T04:17:47.577Z,18.07
2019-02-17T04:20:13.730Z,22.43
2019-02-17T04:22:39.939Z,23.83
2019-02-17T04:25:06.153Z,32.67
2019-02-17T04:27:32.383Z,23.33
2019-02-17T04:29:58.601Z,21.03
2019-02-17T04:32:24.756Z,24.47
2019-02-17T04:34:50.908Z,23.60
2019-02-17T04:37:17.202Z,22.93
2019-02-17T04:39:43.351Z,21.10
2019-02-17T04:42:09.606Z,17.97
2019-02-17T04:44:35.792Z,26.03
2019-02-17T04:47:01.954Z,26.73
2019-02-17T04:49:28.122Z,27.10
2019-02-17T04:51:54.315Z,16.87
2019-02-17T04:54:20.472Z,25.00
2019-02-17T04:56:46.646Z,35.53
2019-02-17T04:59:12.824Z,42.90
2019-02-17T05:01:38.985Z,31.40
2019-02-17T05:04:05.152Z,33.93
2019-02-17T05:06:31.338Z,40.37
2019-02-17T05:08:57.492Z,40.27
2019-02-17T05:11:23.646Z,51.27
2019-02-17T05:13:49.932Z,43.13
2019-02-17T05:16:16.091Z,55.60
2019-02-17T05:18:42.350Z,42.13
2019-02-17T05:21:08.546Z,37.23
2019-02-17T05:23:34.692Z,38.90
2019-02-17T05:26:00.957Z,45.97
2019-02-17T05:28:27.151Z,45.70
2019-02-17T05:30:53.614Z,52.20
2019-02-17T05:33:20.091Z,49.33
2019-02-17T05:35:46.350Z,42.67
2019-02-17T05:38:12.507Z,53.13
2019-02-17T05:40:38.661Z,60.97
2019-02-17T05:43:04.855Z,66.27
2019-02-17T05:45:31.109Z,61.03
2019-02-17T05:47:57.360Z,56.67
2019-02-17T05:50:23.557Z,50.40
2019-02-17T05:52:49.816Z,44.43
2019-02-17T05:55:15.968Z,55.23
2019-02-17T05:57:42.155Z,41.10
2019-02-17T06:00:09.731Z,52.27
2019-02-17T06:02:35.910Z,46.47
2019-02-17T06:05:02.214Z,46.50
2019-02-17T06:07:28.378Z,47.20
2019-02-17T06:09:54.643Z,54.03
2019-02-17T06:12:20.823Z,65.20
2019-02-17T06:14:46.984Z,95.57
2019-02-17T06:17:13.328Z,97.50
2019-02-17T06:19:39.613Z,68.93
2019-02-17T06:22:05.776Z,86.30
2019-02-17T06:24:31.933Z,78.30
2019-02-17T06:26:58.172Z,70.80
2019-02-17T06:29:24.324Z,83.63
2019-02-17T06:31:50.475Z,74.20
2019-02-17T06:34:16.661Z,93.20
2019-02-17T06:36:42.826Z,91.43
2019-02-17T06:39:08.981Z,98.07
2019-02-17T06:41:35.269Z,100.87
2019-02-17T06:44:01.415Z,115.03
2019-02-17T06:46:29.503Z,124.50
2019-02-17T06:48:55.665Z,119.77
2019-02-17T06:51:21.825Z,110.10
2019-02-17T06:53:47.985Z,89.23
2019-02-17T06:56:33.898Z,79.90
2019-02-17T06:59:00.046Z,77.70
2019-02-17T07:01:26.359Z,62.43
2019-02-17T07:03:52.536Z,63.77
2019-02-17T07:06:23.258Z,59.37
2019-02-17T07:08:49.414Z,61.30
2019-02-17T07:11:15.709Z,58.33
2019-02-17T07:13:41.867Z,61.93
2019-02-17T07:16:08.125Z,61.50
2019-02-17T07:18:34.315Z,65.07
2019-02-17T07:21:00.466Z,70.97
2019-02-17T07:23:26.741Z,65.70
2019-02-17T07:25:52.833Z,76.40
2019-02-17T07:28:20.002Z,83.63
2019-02-17T07:30:47.597Z,37.63
2019-02-17T07:33:13.799Z,43.20
2019-02-17T07:35:39.948Z,35.97
2019-02-17T07:38:06.102Z,32.50
2019-02-17T07:40:32.286Z,34.37
2019-02-17T07:42:58.446Z,31.37
2019-02-17T07:45:24.703Z,50.03
2019-02-17T07:47:50.909Z,52.33
2019-02-17T07:50:17.071Z,47.73
2019-02-17T07:52:43.222Z,44.83
2019-02-17T07:55:09.922Z,45.67
2019-02-17T07:57:36.091Z,50.30
2019-02-17T08:00:05.352Z,49.13
2019-02-17T08:02:31.704Z,41.73
2019-02-17T08:04:57.952Z,51.27
2019-02-17T08:07:24.207Z,35.53
2019-02-17T08:09:50.407Z,39.03
2019-02-17T08:12:16.566Z,39.73
2019-02-17T08:14:42.824Z,31.20
2019-02-17T08:17:09.027Z,32.77
2019-02-17T08:19:35.197Z,35.27
2019-02-17T08:22:01.361Z,37.27
2019-02-17T08:24:27.579Z,40.73
2019-02-17T08:26:53.754Z,30.43
2019-02-17T08:29:20.083Z,36.73
2019-02-17T08:31:55.207Z,31.00
2019-02-17T08:34:14.389Z,24.87
2019-02-17T08:36:40.551Z,20.33
2019-02-17T08:39:06.753Z,22.97
2019-02-17T08:41:32.909Z,27.97
2019-02-17T08:44:00.851Z,28.70
2019-02-17T08:46:27.351Z,21.77
2019-02-17T08:48:53.508Z,30.60
2019-02-17T08:51:19.779Z,23.40
2019-02-17T08:53:45.995Z,24.50
2019-02-17T08:56:12.558Z,20.13
2019-02-17T08:58:38.843Z,30.73
2019-02-17T09:01:05.151Z,29.23
2019-02-17T09:03:31.312Z,36.53
2019-02-17T09:05:57.577Z,26.70
2019-02-17T09:08:23.800Z,32.77
2019-02-17T09:10:49.965Z,29.53
2019-02-17T09:13:18.463Z,30.73
2019-02-17T09:15:44.425Z,37.43
2019-02-17T09:18:10.589Z,30.23
2019-02-17T09:20:36.864Z,28.60
2019-02-17T09:23:03.068Z,27.87
2019-02-17T09:25:29.236Z,26.83
2019-02-17T09:27:55.400Z,30.00
2019-02-17T09:30:21.711Z,24.23
2019-02-17T09:32:48.020Z,26.70
2019-02-17T09:35:14.150Z,25.40
2019-02-17T09:37:40.348Z,33.17
2019-02-17T09:40:09.024Z,28.63
2019-02-17T09:42:35.190Z,24.00
2019-02-17T09:45:01.503Z,28.73
2019-02-17T09:47:27.775Z,20.50
2019-02-17T09:49:53.945Z,23.20
2019-02-17T09:52:20.154Z,18.67
2019-02-17T09:54:46.322Z,25.47
2019-02-17T09:57:12.487Z,25.90
2019-02-17T09:59:38.677Z,24.70
2019-02-17T10:02:04.859Z,30.70
2019-02-17T10:04:31.131Z,24.40
2019-02-17T10:06:57.380Z,26.10
2019-02-17T10:09:23.542Z,25.53
2019-02-17T10:11:49.733Z,21.13
2019-02-17T10:14:15.941Z,28.00
2019-02-17T10:16:42.107Z,27.43
2019-02-17T10:19:08.385Z,32.20
2019-02-17T10:21:34.702Z,23.73
2019-02-17T10:24:00.879Z,23.40
2019-02-17T10:26:27.039Z,104.73
2019-02-17T10:28:53.322Z,48.00
2019-02-17T10:31:19.666Z,25.67
2019-02-17T10:33:45.823Z,16.97
2019-02-17T10:36:12.020Z,16.43
2019-02-17T10:38:38.178Z,15.87
2019-02-17T10:41:04.348Z,26.33
2019-02-17T10:43:32.352Z,28.03
2019-02-17T10:46:00.234Z,22.50
2019-02-17T10:48:26.590Z,37.83
2019-02-17T10:50:52.902Z,27.87
2019-02-17T10:53:19.073Z,26.83
2019-02-17T10:55:45.247Z,17.53
2019-02-17T10:58:11.551Z,23.23
2019-02-17T11:00:37.693Z,27.90
2019-02-17T11:03:06.174Z,20.20
2019-02-17T11:05:32.490Z,25.87
2019-02-17T11:07:58.692Z,23.33
2019-02-17T11:10:24.875Z,21.03
2019-02-17T11:12:51.186Z,20.13
2019-02-17T11:15:20.438Z,23.67
2019-02-17T11:17:46.596Z,24.87
2019-02-17T11:20:12.807Z,26.20
2019-02-17T11:22:39.075Z,24.90
2019-02-17T11:25:05.940Z,22.63
2019-02-17T11:27:32.132Z,24.33
2019-02-17T11:29:58.308Z,23.83
2019-02-17T11:32:24.520Z,26.27
2019-02-17T11:34:50.726Z,23.20
2019-02-17T11:37:16.884Z,23.33
2019-02-17T11:39:43.048Z,23.00
2019-02-17T11:42:09.236Z,25.50
2019-02-17T11:44:35.392Z,24.37
2019-02-17T11:47:01.560Z,26.67
2019-02-17T11:49:27.757Z,30.80
2019-02-17T11:51:53.931Z,23.73
2019-02-17T11:54:20.117Z,19.50
2019-02-17T11:56:46.302Z,23.47
2019-02-17T11:59:12.480Z,20.13
2019-02-17T12:01:38.636Z,23.23
2019-02-17T12:04:04.824Z,24.50
2019-02-17T12:06:31.079Z,20.43
2019-02-17T12:08:57.240Z,27.83
2019-02-17T12:11:23.422Z,23.17
2019-02-17T12:13:49.592Z,20.87
2019-02-17T12:16:15.762Z,21.07
2019-02-17T12:18:42.084Z,21.93
2019-02-17T12:21:22.216Z,23.57
2019-02-17T12:23:50.322Z,25.20
2019-02-17T12:26:27.169Z,18.40
2019-02-17T12:29:01.227Z,27.23
2019-02-17T12:31:29.100Z,24.20
2019-02-17T12:33:55.304Z,32.53
2019-02-17T12:36:21.492Z,30.67
2019-02-17T12:38:48.826Z,21.77
2019-02-17T12:41:15.086Z,20.93
2019-02-17T12:43:41.284Z,26.53
2019-02-17T12:46:07.533Z,24.57
2019-02-17T12:48:33.700Z,21.80
2019-02-17T12:51:00.296Z,24.70
2019-02-17T12:53:26.746Z,21.77
2019-02-17T12:55:52.910Z,23.80
2019-02-17T12:58:29.389Z,23.67
2019-02-17T13:00:47.282Z,20.37
2019-02-17T13:03:13.458Z,25.13
2019-02-17T13:05:39.647Z,26.73
2019-02-17T13:08:05.805Z,26.83
2019-02-17T13:10:31.970Z,31.77
2019-02-17T13:12:58.180Z,20.57
2019-02-17T13:15:24.344Z,27.13
2019-02-17T13:17:52.896Z,27.27
2019-02-17T13:20:18.610Z,21.23
2019-02-17T13:22:44.765Z,21.50
2019-02-17T13:25:15.421Z,20.97
2019-02-17T13:27:41.613Z,19.90
2019-02-17T13:30:14.072Z,19.33
2019-02-17T13:32:40.232Z,20.10
2019-02-17T13:35:06.571Z,25.63
2019-02-17T13:37:32.829Z,21.40
2019-02-17T13:39:58.985Z,18.97
2019-02-17T13:42:25.168Z,26.73
2019-02-17T13:44:51.311Z,23.00
2019-02-17T13:47:17.473Z,17.37
2019-02-17T13:49:43.668Z,23.03
2019-02-17T13:52:09.820Z,21.20
2019-02-17T13:54:36.083Z,24.87
2019-02-17T13:57:02.269Z,25.70
2019-02-17T13:59:28.575Z,21.33
2019-02-17T14:01:54.845Z,19.07
2019-02-17T14:04:21.074Z,17.70
2019-02-17T14:06:47.235Z,23.63
2019-02-17T14:09:13.398Z,24.87
2019-02-17T14:11:39.589Z,22.70
2019-02-17T14:14:05.749Z,18.80
2019-02-17T14:16:31.917Z,26.50
2019-02-17T14:18:58.216Z,21.63
2019-02-17T14:21:24.381Z,19.53
2019-02-17T14:23:50.543Z,22.47
2019-02-17T14:26:16.833Z,23.53
2019-02-17T14:28:43.011Z,18.97
2019-02-17T14:31:09.184Z,19.37
2019-02-17T14:33:35.379Z,21.87
2019-02-17T14:36:02.792Z,23.57
2019-02-17T14:38:29.134Z,21.93
2019-02-17T14:40:55.325Z,28.13
2019-02-17T14:43:21.596Z,20.43
2019-02-17T14:45:47.746Z,22.57
2019-02-17T14:48:15.181Z,19.63
2019-02-17T14:50:41.473Z,18.57
2019-02-17T14:53:07.622Z,27.67
2019-02-17T14:55:33.810Z,29.00
2019-02-17T14:58:05.574Z,34.97
2019-02-17T15:00:28.083Z,28.77
2019-02-17T15:02:54.339Z,31.53
2019-02-17T15:05:20.658Z,39.97
2019-02-17T15:07:47.013Z,27.77
2019-02-17T15:10:13.535Z,38.60
2019-02-17T15:12:39.712Z,41.30
2019-02-17T15:15:09.783Z,70.63
2019-02-17T15:17:35.945Z,53.53
2019-02-17T15:20:02.511Z,43.47
2019-02-17T15:22:34.376Z,116.10
2019-02-17T15:25:00.658Z,50.90
2019-02-17T15:27:26.802Z,59.50
2019-02-17T15:29:52.960Z,103.63
2019-02-17T15:32:19.158Z,69.63
2019-02-17T15:34:45.337Z,83.13
2019-02-17T15:37:11.643Z,77.70
2019-02-17T15:39:37.831Z,81.77
2019-02-17T15:42:04.030Z,84.80
2019-02-17T15:44:30.287Z,80.67
2019-02-17T15:46:56.491Z,101.90
2019-02-17T15:49:22.656Z,100.03
2019-02-17T15:51:48.912Z,98.83
2019-02-17T15:54:15.113Z,95.17
2019-02-17T15:56:41.380Z,97.07
2019-02-17T15:59:07.544Z,74.00
2019-02-17T16:01:33.740Z,172.50
2019-02-17T16:03:59.906Z,53.43
2019-02-17T16:06:26.169Z,56.43
2019-02-17T16:08:52.474Z,62.37
2019-02-17T16:11:18.619Z,45.40
2019-02-17T16:13:44.776Z,47.07
2019-02-17T16:16:10.974Z,64.00
2019-02-17T16:18:37.135Z,64.10
2019-02-17T16:21:03.913Z,66.47
2019-02-17T16:23:30.123Z,58.40
2019-02-17T16:25:56.432Z,59.57
2019-02-17T16:28:22.593Z,56.77
2019-02-17T16:30:48.790Z,57.60
2019-02-17T16:33:15.056Z,51.17
2019-02-17T16:35:41.216Z,75.07
2019-02-17T16:38:08.414Z,78.43
2019-02-17T16:40:34.671Z,56.43
2019-02-17T16:43:00.851Z,77.03
2019-02-17T16:45:27.058Z,80.83
2019-02-17T16:47:53.237Z,71.50
2019-02-17T16:50:20.896Z,67.53
2019-02-17T16:52:47.088Z,95.97
2019-02-17T16:55:13.252Z,62.23
2019-02-17T16:57:39.407Z,56.97
2019-02-17T17:00:09.322Z,66.13
2019-02-17T17:02:35.484Z,94.10
2019-02-17T17:05:02.746Z,78.60
2019-02-17T17:07:29.041Z,99.03
2019-02-17T17:09:55.194Z,91.90
2019-02-17T17:12:21.348Z,95.83
2019-02-17T17:14:47.531Z,103.97
2019-02-17T17:17:13.809Z,133.43
2019-02-17T17:19:39.985Z,216.90
2019-02-17T17:22:06.181Z,222.77
2019-02-17T17:24:32.346Z,201.63
2019-02-17T17:26:58.612Z,252.07
2019-02-17T17:29:24.803Z,159.30
2019-02-17T17:31:50.967Z,121.97
2019-02-17T17:34:17.253Z,105.57
2019-02-17T17:36:43.445Z,62.43
2019-02-17T17:39:09.651Z,73.63
2019-02-17T17:41:35.821Z,60.00
2019-02-17T17:44:02.010Z,59.17
2019-02-17T17:46:28.268Z,48.00
2019-02-17T17:48:54.434Z,64.83
2019-02-17T17:51:20.650Z,77.67
2019-02-17T17:53:47.128Z,127.07
2019-02-17T17:56:13.474Z,122.90
2019-02-17T17:58:39.764Z,98.20
2019-02-17T18:01:07.814Z,92.37
2019-02-17T18:03:34.213Z,107.83
2019-02-17T18:06:00.399Z,80.67
2019-02-17T18:08:26.554Z,87.03
2019-02-17T18:10:52.724Z,88.23
2019-02-17T18:13:19.025Z,89.20
2019-02-17T18:15:45.300Z,79.40
2019-02-17T18:18:11.471Z,73.73
2019-02-17T18:20:37.750Z,65.53
2019-02-17T18:23:04.016Z,62.37
2019-02-17T18:25:30.192Z,72.03
2019-02-17T18:27:56.626Z,48.37
2019-02-17T18:30:22.778Z,57.40
2019-02-17T18:32:49.033Z,59.00
2019-02-17T18:35:19.605Z,56.30
2019-02-17T18:37:43.295Z,59.27
2019-02-17T18:40:14.750Z,60.67
2019-02-17T18:42:41.820Z,51.33
2019-02-17T18:45:11.395Z,62.10
2019-02-17T18:47:37.560Z,44.57
2019-02-17T18:50:12.350Z,42.97
2019-02-17T18:52:38.511Z,34.20
2019-02-17T18:55:06.771Z,34.83
2019-02-17T18:57:33.177Z,36.63
2019-02-17T18:59:59.334Z,40.17
2019-02-17T19:02:25.498Z,32.53
2019-02-17T19:04:51.796Z,34.07
2019-02-17T19:07:17.958Z,43.10
2019-02-17T19:09:44.117Z,41.83
2019-02-17T19:12:10.310Z,40.67
2019-02-17T19:14:36.472Z,33.97
2019-02-17T19:17:02.732Z,35.30
2019-02-17T19:19:28.929Z,33.57
2019-02-17T19:21:55.089Z,37.73
2019-02-17T19:24:21.244Z,42.57
2019-02-17T19:26:47.435Z,35.93
2019-02-17T19:29:13.589Z,37.23
2019-02-17T19:31:39.846Z,37.70
2019-02-17T19:34:06.048Z,34.83
2019-02-17T19:36:32.211Z,38.80
2019-02-17T19:38:58.374Z,47.97
2019-02-17T19:41:25.528Z,48.57
2019-02-17T19:43:51.682Z,52.87
2019-02-17T19:46:17.836Z,48.33
2019-02-17T19:48:44.019Z,56.40
2019-02-17T19:51:10.177Z,53.23
2019-02-17T19:53:36.452Z,50.87
2019-02-17T19:56:02.658Z,48.17
2019-02-17T19:58:28.816Z,40.93
2019-02-17T20:00:54.972Z,44.97
2019-02-17T20:03:31.833Z,38.93
2019-02-17T20:06:02.528Z,40.03
2019-02-17T20:08:28.687Z,34.50
2019-02-17T20:10:54.891Z,37.77
2019-02-17T20:13:21.468Z,33.87
2019-02-17T20:15:47.732Z,33.03
2019-02-17T20:18:13.924Z,31.00
2019-02-17T20:20:40.077Z,33.20
2019-02-17T20:23:06.234Z,37.87
2019-02-17T20:25:38.021Z,38.13
2019-02-17T20:28:04.277Z,36.90
2019-02-17T20:30:30.431Z,38.10
2019-02-17T20:32:56.723Z,32.63
2019-02-17T20:35:22.979Z,34.47
2019-02-17T20:37:49.261Z,35.93
2019-02-17T20:40:16.752Z,31.07
2019-02-17T20:42:42.954Z,32.60
2019-02-17T20:45:10.462Z,30.20
2019-02-17T20:47:36.604Z,27.37
2019-02-17T20:50:05.572Z,27.83
2019-02-17T20:52:32.133Z,25.93
2019-02-17T20:54:58.326Z,29.40
2019-02-17T20:57:24.577Z,24.73
2019-02-17T20:59:50.732Z,24.20
2019-02-17T21:02:16.928Z,26.17
2019-02-17T21:04:43.084Z,27.30
2019-02-17T21:07:09.748Z,34.67
2019-02-17T21:09:35.939Z,39.07
2019-02-17T21:12:02.215Z,28.50
2019-02-17T21:14:28.387Z,26.27
2019-02-17T21:16:54.680Z,26.93
2019-02-17T21:19:20.933Z,25.87
2019-02-17T21:21:47.275Z,22.43
2019-02-17T21:24:13.577Z,28.40
2019-02-17T21:26:39.731Z,20.73
2019-02-17T21:29:05.890Z,25.40
2019-02-17T21:31:32.086Z,19.67
2019-02-17T21:34:01.391Z,21.73
2019-02-17T21:36:27.546Z,24.63
2019-02-17T21:38:58.684Z,22.30
2019-02-17T21:41:24.281Z,28.00
2019-02-17T21:43:50.535Z,28.10
2019-02-17T21:46:16.837Z,20.60
2019-02-17T21:48:43.113Z,24.30
2019-02-17T21:51:09.273Z,22.50
2019-02-17T21:53:35.467Z,25.67
2019-02-17T21:56:01.614Z,22.33
2019-02-17T21:58:27.892Z,22.67
2019-02-17T22:00:54.079Z,19.83
2019-02-17T22:03:20.582Z,21.83
2019-02-17T22:05:46.752Z,21.87
2019-02-17T22:08:12.948Z,22.97
2019-02-17T22:10:39.208Z,22.57
2019-02-17T22:13:05.361Z,22.57
2019-02-17T22:15:31.546Z,23.23
2019-02-17T22:17:57.704Z,22.57
2019-02-17T22:20:23.869Z,23.57
2019-02-17T22:22:50.057Z,27.60
2019-02-17T22:25:16.304Z,22.83
2019-02-17T22:27:42.563Z,23.63
2019-02-17T22:30:11.151Z,18.80
2019-02-17T22:32:37.310Z,24.13
2019-02-17T22:35:03.667Z,20.60
2019-02-17T22:37:29.857Z,23.37
2019-02-17T22:39:56.016Z,21.40
2019-02-17T22:42:22.178Z,21.70
2019-02-17T22:44:49.227Z,19.87
2019-02-17T22:47:15.484Z,19.60
2019-02-17T22:49:41.652Z,22.57
2019-02-17T22:52:08.931Z,19.43
2019-02-17T22:54:35.085Z,21.77
2019-02-17T22:57:01.247Z,22.13
2019-02-17T22:59:27.428Z,21.10
2019-02-17T23:01:54.184Z,27.10
2019-02-17T23:04:20.335Z,34.43
2019-02-17T23:06:53.752Z,23.77
2019-02-17T23:09:15.497Z,26.67
2019-02-17T23:11:41.649Z,39.00
2019-02-17T23:14:07.838Z,33.00
2019-02-17T23:16:33.999Z,32.40
2019-02-17T23:19:00.156Z,35.37
2019-02-17T23:21:26.451Z,42.20
2019-02-17T23:23:52.615Z,48.97
2019-02-17T23:26:18.774Z,32.20
2019-02-17T23:28:44.957Z,26.77
2019-02-17T23:31:11.222Z,21.83
2019-02-17T23:33:37.369Z,29.73
2019-02-17T23:36:03.575Z,30.70
2019-02-17T23:38:29.826Z,39.73
2019-02-17T23:40:55.998Z,59.83
2019-02-17T23:43:22.183Z,29.33
2019-02-17T23:45:48.388Z,34.13
2019-02-17T23:48:15.243Z,31.33
2019-02-17T23:50:41.430Z,34.30
2019-02-17T23:53:07.584Z,32.53
2019-02-17T23:55:33.890Z,31.47
2019-02-17T23:58:00.115Z,34.47
